createdAt,value
2022-12-28T00:00:33.672Z,9.73
2022-12-28T00:03:00.082Z,9.23
2022-12-28T00:05:26.434Z,10.98
2022-12-28T00:07:52.820Z,10.57
2022-12-28T00:10:19.119Z,10.20
2022-12-28T00:13:05.418Z,9.40
2022-12-28T00:15:31.715Z,9.82
2022-12-28T00:17:58.031Z,9.90
2022-12-28T00:20:24.366Z,11.32
2022-12-28T00:22:50.634Z,10.75
2022-12-28T00:25:16.967Z,11.25
2022-12-28T00:27:43.262Z,11.15
2022-12-28T00:30:09.993Z,10.65
2022-12-28T00:32:36.327Z,11.18
2022-12-28T00:35:02.679Z,11.27
2022-12-28T00:37:29.013Z,11.27
2022-12-28T00:39:55.415Z,10.65
2022-12-28T00:42:21.718Z,11.32
2022-12-28T00:44:48.065Z,10.30
2022-12-28T00:47:15.928Z,10.23
2022-12-28T00:49:42.205Z,10.85
2022-12-28T00:52:08.530Z,10.70
2022-12-28T00:54:34.892Z,10.82
2022-12-28T00:57:02.384Z,11.82
2022-12-28T00:59:28.716Z,10.82
2022-12-28T01:01:55.128Z,11.05
2022-12-28T01:04:21.587Z,11.63
2022-12-28T01:06:47.878Z,11.20
2022-12-28T01:09:14.692Z,12.38
2022-12-28T01:11:41.047Z,11.35
2022-12-28T01:14:07.375Z,11.82
2022-12-28T01:16:34.814Z,11.32
2022-12-28T01:19:03.373Z,12.25
2022-12-28T01:21:30.989Z,12.45
2022-12-28T01:23:58.666Z,12.20
2022-12-28T01:26:25.927Z,12.32
2022-12-28T01:28:52.291Z,12.98
2022-12-28T01:31:19.730Z,12.80
2022-12-28T01:33:46.377Z,13.90
2022-12-28T01:36:20.161Z,15.18
2022-12-28T01:41:14.248Z,15.70
2022-12-28T01:43:41.976Z,16.30
2022-12-28T01:46:09.867Z,15.10
2022-12-28T01:48:39.405Z,15.38
2022-12-28T01:51:05.801Z,15.43
2022-12-28T01:53:32.175Z,15.23
2022-12-28T01:55:58.545Z,15.10
2022-12-28T01:58:26.083Z,15.43
2022-12-28T02:00:52.467Z,15.23
2022-12-28T02:03:21.905Z,15.05
2022-12-28T02:05:50.640Z,14.82
2022-12-28T02:08:20.165Z,15.52
2022-12-28T02:10:46.711Z,15.13
2022-12-28T02:13:15.764Z,15.60
2022-12-28T02:15:42.322Z,16.58
2022-12-28T02:18:09.232Z,16.58
2022-12-28T02:20:54.562Z,15.93
2022-12-28T02:23:31.299Z,18.08
2022-12-28T02:26:03.683Z,17.23
2022-12-28T02:28:48.340Z,16.95
2022-12-28T02:31:18.077Z,18.10
2022-12-28T02:33:50.571Z,17.17
2022-12-28T02:36:19.061Z,16.67
2022-12-28T02:38:48.987Z,17.58
2022-12-28T02:41:17.810Z,17.05
2022-12-28T02:43:44.698Z,18.02
2022-12-28T02:46:44.957Z,17.30
2022-12-28T02:49:37.493Z,16.02
2022-12-28T02:52:32.904Z,15.48
2022-12-28T02:55:37.299Z,12.23
2022-12-28T02:58:03.657Z,16.00
2022-12-28T03:00:37.443Z,16.45
2022-12-28T03:05:54.383Z,15.27
2022-12-28T03:08:31.554Z,16.65
2022-12-28T03:11:03.622Z,16.40
2022-12-28T03:13:42.939Z,17.40
2022-12-28T03:16:16.834Z,16.65
2022-12-28T03:19:04.865Z,17.80
2022-12-28T03:21:51.756Z,18.08
2022-12-28T03:24:38.541Z,18.38
2022-12-28T03:27:28.020Z,18.95
2022-12-28T03:30:17.954Z,17.80
2022-12-28T03:32:44.540Z,18.95
2022-12-28T03:35:11.044Z,18.67
2022-12-28T03:37:40.919Z,19.63
2022-12-28T03:40:31.219Z,19.27
2022-12-28T03:43:20.552Z,19.30
2022-12-28T03:45:57.625Z,20.50
2022-12-28T03:48:24.619Z,21.48
2022-12-28T03:50:51.309Z,21.75
2022-12-28T03:53:19.659Z,21.60
2022-12-28T03:55:46.087Z,21.35
2022-12-28T03:58:14.433Z,21.40
2022-12-28T04:00:41.400Z,21.38
2022-12-28T04:03:07.838Z,21.83
2022-12-28T04:05:34.901Z,22.25
2022-12-28T04:08:01.297Z,23.17
2022-12-28T04:10:27.951Z,21.83
2022-12-28T04:12:54.882Z,23.83
2022-12-28T04:15:29.277Z,23.65
2022-12-28T04:17:55.584Z,23.20
2022-12-28T04:20:22.887Z,21.77
2022-12-28T04:22:50.270Z,22.48
2022-12-28T04:25:16.596Z,22.65
2022-12-28T04:27:43.272Z,23.60
2022-12-28T04:30:25.864Z,23.20
2022-12-28T04:32:52.447Z,23.90
2022-12-28T04:35:18.857Z,23.88
2022-12-28T04:37:49.078Z,22.38
2022-12-28T04:40:15.349Z,22.58
2022-12-28T04:42:41.655Z,22.38
2022-12-28T04:45:08.316Z,22.70
2022-12-28T04:47:34.693Z,22.40
2022-12-28T04:50:00.974Z,22.13
2022-12-28T04:52:27.347Z,20.67
2022-12-28T04:54:53.723Z,20.77
2022-12-28T04:57:20.082Z,22.05
2022-12-28T04:59:46.410Z,20.92
2022-12-28T05:02:12.822Z,20.60
2022-12-28T05:04:39.225Z,21.13
2022-12-28T05:07:05.517Z,20.60
2022-12-28T05:09:31.879Z,21.00
2022-12-28T05:11:58.165Z,19.85
2022-12-28T05:14:24.544Z,19.88
2022-12-28T05:16:52.024Z,22.17
2022-12-28T05:19:18.350Z,21.83
2022-12-28T05:21:44.684Z,20.45
2022-12-28T05:24:10.975Z,20.15
2022-12-28T05:26:37.341Z,20.30
2022-12-28T05:29:03.729Z,21.00
2022-12-28T05:31:30.159Z,21.10
2022-12-28T05:33:56.539Z,20.90
2022-12-28T05:36:24.044Z,21.00
2022-12-28T05:38:50.588Z,20.27
2022-12-28T05:41:21.449Z,19.58
2022-12-28T05:43:47.852Z,20.98
2022-12-28T05:46:19.093Z,20.50
2022-12-28T05:48:45.671Z,20.23
2022-12-28T05:51:13.061Z,21.40
2022-12-28T05:53:39.839Z,20.50
2022-12-28T05:56:12.116Z,20.08
2022-12-28T05:58:40.681Z,19.60
2022-12-28T06:01:08.472Z,21.00
2022-12-28T06:03:35.645Z,19.75
2022-12-28T06:06:02.897Z,19.42
2022-12-28T06:08:29.219Z,19.83
2022-12-28T06:10:58.951Z,19.60
2022-12-28T06:13:25.308Z,19.33
2022-12-28T06:15:51.613Z,18.38
2022-12-28T06:18:17.957Z,20.30
2022-12-28T06:20:44.655Z,19.13
2022-12-28T06:23:10.943Z,19.75
2022-12-28T06:25:37.634Z,19.52
2022-12-28T06:28:04.075Z,21.45
2022-12-28T06:30:30.411Z,20.10
2022-12-28T06:32:57.255Z,20.25
2022-12-28T06:35:23.607Z,20.33
2022-12-28T06:37:49.965Z,19.58
2022-12-28T06:40:16.316Z,20.40
2022-12-28T06:42:43.361Z,18.23
2022-12-28T06:45:09.861Z,18.98
2022-12-28T06:47:37.636Z,29.20
2022-12-28T06:50:04.267Z,21.25
2022-12-28T06:52:30.574Z,17.67
2022-12-28T06:54:56.891Z,17.38
2022-12-28T06:57:23.276Z,16.98
2022-12-28T06:59:49.596Z,17.13
2022-12-28T07:02:16.118Z,16.83
2022-12-28T07:04:42.548Z,16.00
2022-12-28T07:07:09.075Z,14.68
2022-12-28T07:09:35.414Z,15.10
2022-12-28T07:12:01.810Z,14.85
2022-12-28T07:14:28.422Z,14.18
2022-12-28T07:16:54.735Z,15.15
2022-12-28T07:19:21.039Z,20.13
2022-12-28T07:21:49.457Z,20.10
2022-12-28T07:24:15.865Z,21.20
2022-12-28T07:26:42.252Z,19.85
2022-12-28T07:29:08.756Z,19.52
2022-12-28T07:31:41.944Z,19.00
2022-12-28T07:34:11.157Z,17.88
2022-12-28T07:36:37.524Z,17.08
2022-12-28T07:39:03.883Z,18.77
2022-12-28T07:41:32.794Z,19.15
2022-12-28T07:43:59.739Z,18.27
2022-12-28T07:46:27.734Z,19.00
2022-12-28T07:48:54.560Z,18.90
2022-12-28T07:51:25.333Z,17.30
2022-12-28T07:53:52.285Z,17.88
2022-12-28T07:56:19.105Z,17.20
2022-12-28T07:58:52.927Z,17.80
2022-12-28T08:03:46.003Z,17.95
2022-12-28T08:06:13.762Z,18.67
2022-12-28T08:08:44.125Z,19.45
2022-12-28T08:11:12.179Z,20.25
2022-12-28T08:13:40.748Z,22.08
2022-12-28T08:16:07.303Z,21.60
2022-12-28T08:18:33.669Z,20.55
2022-12-28T08:21:07.505Z,19.30
2022-12-28T08:26:10.457Z,17.55
2022-12-28T08:28:37.254Z,17.77
2022-12-28T08:31:07.370Z,17.15
2022-12-28T08:33:33.777Z,16.92
2022-12-28T08:36:01.254Z,16.35
2022-12-28T08:38:27.680Z,16.75
2022-12-28T08:40:57.954Z,15.77
2022-12-28T08:43:24.382Z,16.52
2022-12-28T08:45:58.384Z,15.60
2022-12-28T08:48:25.426Z,15.52
2022-12-28T08:50:51.995Z,15.18
2022-12-28T08:53:18.405Z,14.73
2022-12-28T08:55:44.761Z,15.27
2022-12-28T08:58:11.205Z,14.75
2022-12-28T09:00:37.603Z,13.80
2022-12-28T09:03:04.126Z,14.73
2022-12-28T09:05:35.915Z,14.05
2022-12-28T09:08:05.851Z,14.52
2022-12-28T09:10:32.121Z,14.20
2022-12-28T09:12:58.402Z,14.52
2022-12-28T09:15:24.993Z,14.27
2022-12-28T09:17:51.269Z,10.90
2022-12-28T09:20:17.730Z,12.45
2022-12-28T09:22:44.039Z,11.38
2022-12-28T09:25:10.380Z,9.95
2022-12-28T09:27:36.706Z,8.60
2022-12-28T09:30:03.501Z,7.75
2022-12-28T09:32:29.789Z,7.55
2022-12-28T09:34:56.087Z,7.35
2022-12-28T09:37:22.428Z,7.82
2022-12-28T09:39:48.862Z,7.90
2022-12-28T09:42:17.209Z,7.10
2022-12-28T09:44:53.668Z,7.50
2022-12-28T09:47:29.593Z,6.05
2022-12-28T09:50:14.537Z,6.38
2022-12-28T09:52:56.398Z,5.95
2022-12-28T09:55:22.773Z,5.20
2022-12-28T09:57:50.667Z,5.00
2022-12-28T10:00:28.598Z,5.30
2022-12-28T10:02:57.443Z,4.45
2022-12-28T10:05:23.962Z,4.50
2022-12-28T10:07:51.382Z,4.35
2022-12-28T10:10:19.068Z,3.88
2022-12-28T10:12:45.828Z,3.97
2022-12-28T10:15:13.059Z,4.28
2022-12-28T10:17:39.689Z,4.22
2022-12-28T10:20:08.052Z,4.00
2022-12-28T10:22:38.767Z,3.80
2022-12-28T10:25:31.542Z,3.95
2022-12-28T10:27:58.888Z,4.18
2022-12-28T10:30:27.181Z,3.70
2022-12-28T10:33:02.490Z,3.40
2022-12-28T10:35:29.897Z,4.80
2022-12-28T10:38:01.543Z,3.95
2022-12-28T10:40:29.233Z,3.42
2022-12-28T10:42:56.484Z,3.90
2022-12-28T10:45:25.434Z,3.88
2022-12-28T10:47:52.894Z,3.80
2022-12-28T10:50:38.344Z,3.55
2022-12-28T10:53:05.008Z,3.28
2022-12-28T10:55:33.395Z,3.70
2022-12-28T10:58:29.124Z,3.78
2022-12-28T11:00:58.621Z,3.53
2022-12-28T11:03:27.081Z,3.47
2022-12-28T11:06:12.452Z,3.55
2022-12-28T11:08:39.783Z,3.97
2022-12-28T11:11:06.724Z,4.25
2022-12-28T11:13:33.514Z,3.83
2022-12-28T11:16:00.016Z,4.60
2022-12-28T11:18:26.548Z,5.30
2022-12-28T11:20:53.457Z,4.50
2022-12-28T11:23:19.811Z,4.95
2022-12-28T11:25:46.156Z,4.72
2022-12-28T11:28:14.297Z,4.43
2022-12-28T11:30:40.558Z,4.88
2022-12-28T11:33:09.933Z,4.50
2022-12-28T11:35:38.599Z,5.05
2022-12-28T11:38:05.779Z,4.45
2022-12-28T11:40:44.313Z,4.68
2022-12-28T11:43:29.051Z,4.68
2022-12-28T11:45:56.602Z,4.20
2022-12-28T11:48:38.859Z,4.43
2022-12-28T11:51:06.235Z,4.63
2022-12-28T11:53:32.804Z,4.35
2022-12-28T11:56:08.479Z,4.03
2022-12-28T11:58:43.538Z,3.92
2022-12-28T12:01:11.183Z,4.10
2022-12-28T12:03:56.821Z,3.83
2022-12-28T12:06:42.213Z,3.88
2022-12-28T12:09:21.124Z,3.47
2022-12-28T12:11:48.888Z,3.05
2022-12-28T12:14:16.242Z,3.25
2022-12-28T12:16:50.812Z,3.65
2022-12-28T12:19:20.690Z,3.10
2022-12-28T12:21:55.322Z,3.25
2022-12-28T12:24:26.717Z,3.00
2022-12-28T12:26:59.791Z,3.10
2022-12-28T12:29:31.093Z,2.85
2022-12-28T12:32:03.762Z,3.00
2022-12-28T12:34:40.244Z,3.13
2022-12-28T12:37:29.921Z,3.15
2022-12-28T12:40:17.141Z,3.08
2022-12-28T12:42:47.255Z,2.75
2022-12-28T12:45:20.341Z,3.08
2022-12-28T12:48:05.823Z,2.90
2022-12-28T12:50:35.405Z,2.97
2022-12-28T12:53:14.935Z,3.20
2022-12-28T12:55:48.193Z,3.13
2022-12-28T12:58:26.559Z,3.00
2022-12-28T13:00:59.214Z,2.85
2022-12-28T13:04:01.495Z,2.70
2022-12-28T13:06:29.807Z,2.88
2022-12-28T13:09:04.729Z,2.55
2022-12-28T13:11:35.365Z,2.97
2022-12-28T13:14:02.120Z,3.42
2022-12-28T13:16:29.702Z,2.97
2022-12-28T13:18:57.845Z,3.20
2022-12-28T13:21:28.450Z,2.85
2022-12-28T13:23:55.085Z,2.78
2022-12-28T13:26:31.183Z,2.67
2022-12-28T13:28:57.683Z,2.90
2022-12-28T13:31:28.654Z,2.58
2022-12-28T13:33:56.130Z,2.70
2022-12-28T13:36:22.631Z,2.55
2022-12-28T13:38:59.721Z,2.67
2022-12-28T13:41:27.093Z,2.50
2022-12-28T13:44:09.225Z,2.60
2022-12-28T13:46:37.337Z,2.58
2022-12-28T13:49:04.308Z,2.75
2022-12-28T13:51:30.764Z,2.67
2022-12-28T13:53:59.702Z,2.78
2022-12-28T13:56:27.127Z,2.53
2022-12-28T13:58:59.389Z,2.55
2022-12-28T14:01:29.205Z,2.63
2022-12-28T14:04:25.688Z,2.50
2022-12-28T14:06:47.784Z,2.33
2022-12-28T14:09:14.954Z,2.38
2022-12-28T14:11:42.494Z,2.45
2022-12-28T14:14:10.183Z,2.58
2022-12-28T14:16:37.644Z,2.70
2022-12-28T14:19:05.738Z,2.67
2022-12-28T14:21:33.750Z,2.50
2022-12-28T14:24:09.039Z,2.60
2022-12-28T14:26:36.611Z,2.58
2022-12-28T14:29:09.166Z,2.55
2022-12-28T14:31:36.256Z,3.13
2022-12-28T14:34:04.589Z,2.38
2022-12-28T14:36:34.229Z,3.20
2022-12-28T14:39:04.715Z,2.88
2022-12-28T14:41:39.566Z,2.30
2022-12-28T14:44:13.302Z,2.88
2022-12-28T14:46:41.235Z,3.08
2022-12-28T14:49:26.463Z,3.05
2022-12-28T14:51:52.780Z,2.90
2022-12-28T14:54:24.021Z,2.97
2022-12-28T14:56:55.388Z,2.40
2022-12-28T14:59:42.056Z,2.72
2022-12-28T15:02:28.986Z,2.33
2022-12-28T15:07:41.814Z,2.65
2022-12-28T15:10:08.950Z,2.53
2022-12-28T15:12:35.627Z,3.60
2022-12-28T15:15:04.197Z,3.25
2022-12-28T15:17:33.509Z,3.05
2022-12-28T15:20:00.052Z,3.20
2022-12-28T15:22:26.384Z,3.50
2022-12-28T15:24:52.827Z,3.90
2022-12-28T15:27:19.180Z,3.75
2022-12-28T15:30:04.509Z,4.22
2022-12-28T15:32:32.291Z,4.00
2022-12-28T15:34:59.191Z,3.53
2022-12-28T15:37:25.704Z,4.05
2022-12-28T15:39:52.237Z,4.40
2022-12-28T15:42:18.621Z,3.55
2022-12-28T15:44:46.523Z,3.28
2022-12-28T15:47:13.429Z,3.90
2022-12-28T15:49:40.098Z,5.10
2022-12-28T15:52:07.007Z,3.40
2022-12-28T15:54:33.690Z,3.47
2022-12-28T15:57:00.275Z,3.00
2022-12-28T15:59:27.747Z,2.60
2022-12-28T16:01:55.421Z,2.28
2022-12-28T16:04:22.969Z,2.30
2022-12-28T16:06:50.124Z,2.00
2022-12-28T16:09:17.166Z,2.20
2022-12-28T16:11:45.665Z,2.40
2022-12-28T16:14:15.983Z,2.53
2022-12-28T16:16:43.918Z,2.30
2022-12-28T16:19:12.635Z,2.22
2022-12-28T16:21:40.068Z,2.40
2022-12-28T16:24:07.552Z,2.13
2022-12-28T16:26:34.738Z,2.13
2022-12-28T16:29:03.934Z,2.65
2022-12-28T16:31:36.278Z,2.47
2022-12-28T16:34:14.268Z,2.47
2022-12-28T16:36:41.932Z,2.30
2022-12-28T16:39:11.473Z,2.70
2022-12-28T16:41:39.252Z,2.30
2022-12-28T16:44:08.048Z,2.30
2022-12-28T16:46:35.516Z,2.45
2022-12-28T16:49:03.307Z,2.00
2022-12-28T16:51:30.921Z,2.53
2022-12-28T16:53:58.231Z,2.30
2022-12-28T16:56:25.781Z,2.10
2022-12-28T16:58:59.599Z,1.92
2022-12-28T17:01:27.778Z,2.70
2022-12-28T17:04:03.406Z,2.78
2022-12-28T17:06:31.832Z,2.20
2022-12-28T17:09:01.169Z,2.45
2022-12-28T17:11:28.649Z,2.22
2022-12-28T17:14:06.834Z,2.58
2022-12-28T17:16:34.636Z,2.17
2022-12-28T17:19:02.450Z,2.25
2022-12-28T17:21:30.444Z,2.60
2022-12-28T17:23:57.781Z,2.35
2022-12-28T17:26:25.609Z,2.40
2022-12-28T17:28:53.105Z,2.65
2022-12-28T17:31:21.524Z,2.38
2022-12-28T17:33:49.658Z,2.50
2022-12-28T17:36:16.429Z,2.45
2022-12-28T17:38:43.153Z,2.38
2022-12-28T17:41:11.610Z,2.10
2022-12-28T17:43:38.715Z,2.50
2022-12-28T17:46:05.670Z,2.30
2022-12-28T17:48:32.714Z,2.38
2022-12-28T17:50:59.657Z,1.88
2022-12-28T17:53:26.417Z,2.50
2022-12-28T17:55:53.635Z,2.30
2022-12-28T17:58:21.113Z,2.22
2022-12-28T18:00:52.824Z,2.45
2022-12-28T18:03:19.440Z,2.20
2022-12-28T18:05:48.199Z,2.35
2022-12-28T18:08:15.676Z,2.40
2022-12-28T18:10:43.146Z,2.65
2022-12-28T18:13:10.445Z,2.63
2022-12-28T18:15:37.851Z,2.55
2022-12-28T18:18:09.441Z,2.42
2022-12-28T18:20:36.628Z,2.67
2022-12-28T18:23:03.774Z,2.80
2022-12-28T18:25:31.078Z,2.67
2022-12-28T18:27:57.979Z,3.00
2022-12-28T18:30:24.468Z,2.58
2022-12-28T18:32:50.883Z,2.78
2022-12-28T18:35:17.358Z,2.60
2022-12-28T18:37:43.728Z,2.28
2022-12-28T18:40:10.331Z,2.85
2022-12-28T18:42:36.727Z,2.70
2022-12-28T18:45:03.370Z,2.70
2022-12-28T18:47:33.041Z,2.65
2022-12-28T18:50:00.126Z,2.95
2022-12-28T18:52:26.779Z,2.83
2022-12-28T18:54:53.521Z,2.60
2022-12-28T18:57:20.649Z,3.00
2022-12-28T18:59:47.364Z,2.83
2022-12-28T19:02:19.572Z,2.47
2022-12-28T19:04:47.989Z,2.70
2022-12-28T19:07:16.341Z,2.60
2022-12-28T19:10:06.540Z,2.97
2022-12-28T19:12:44.415Z,2.95
2022-12-28T19:15:11.060Z,2.88
2022-12-28T19:17:37.855Z,2.70
2022-12-28T19:20:05.221Z,2.90
2022-12-28T19:22:31.982Z,2.67
2022-12-28T19:24:58.404Z,2.40
2022-12-28T19:27:24.753Z,2.55
2022-12-28T19:29:51.157Z,2.88
2022-12-28T19:32:17.464Z,2.40
2022-12-28T19:34:43.927Z,2.30
2022-12-28T19:37:10.286Z,2.67
2022-12-28T19:39:36.804Z,2.53
2022-12-28T19:42:03.264Z,2.80
2022-12-28T19:44:29.719Z,2.70
2022-12-28T19:46:56.148Z,2.75
2022-12-28T19:49:22.507Z,2.95
2022-12-28T19:51:48.848Z,2.50
2022-12-28T19:54:15.331Z,2.80
2022-12-28T19:56:41.742Z,2.70
2022-12-28T19:59:08.185Z,2.50
2022-12-28T20:01:35.569Z,2.67
2022-12-28T20:04:07.139Z,2.47
2022-12-28T20:06:39.375Z,2.65
2022-12-28T20:09:05.699Z,2.70
2022-12-28T20:11:32.013Z,2.83
2022-12-28T20:14:02.163Z,3.03
2022-12-28T20:16:29.997Z,2.72
2022-12-28T20:18:56.491Z,2.97
2022-12-28T20:21:23.823Z,2.60
2022-12-28T20:23:50.979Z,2.78
2022-12-28T20:26:17.768Z,2.67
2022-12-28T20:28:44.517Z,2.85
2022-12-28T20:31:12.654Z,3.15
2022-12-28T20:33:39.637Z,2.42
2022-12-28T20:36:22.981Z,2.80
2022-12-28T20:38:49.559Z,3.10
2022-12-28T20:41:37.673Z,2.80
2022-12-28T20:44:05.610Z,3.30
2022-12-28T20:46:32.378Z,2.60
2022-12-28T20:48:59.061Z,2.60
2022-12-28T20:51:25.688Z,3.30
2022-12-28T20:53:52.009Z,2.53
2022-12-28T20:56:18.448Z,2.75
2022-12-28T20:58:44.771Z,2.70
2022-12-28T21:01:12.501Z,2.85
2022-12-28T21:03:39.264Z,2.60
2022-12-28T21:06:06.247Z,2.70
2022-12-28T21:08:33.107Z,2.80
2022-12-28T21:10:59.515Z,2.88
2022-12-28T21:13:26.353Z,2.90
2022-12-28T21:15:52.757Z,2.80
2022-12-28T21:18:36.792Z,2.70
2022-12-28T21:21:03.449Z,2.97
2022-12-28T21:23:30.371Z,2.85
2022-12-28T21:26:00.891Z,3.30
2022-12-28T21:28:27.368Z,2.80
2022-12-28T21:30:54.591Z,3.30
2022-12-28T21:33:21.049Z,3.03
2022-12-28T21:35:57.858Z,2.97
2022-12-28T21:38:25.209Z,3.20
2022-12-28T21:41:02.171Z,2.95
2022-12-28T21:43:29.174Z,2.85
2022-12-28T21:46:02.273Z,3.03
2022-12-28T21:48:33.568Z,3.00
2022-12-28T21:51:04.774Z,3.10
2022-12-28T21:53:31.277Z,3.35
2022-12-28T21:55:57.600Z,3.40
2022-12-28T21:58:24.010Z,3.50
2022-12-28T22:01:09.181Z,3.17
2022-12-28T22:03:54.410Z,3.28
2022-12-28T22:06:20.714Z,3.40
2022-12-28T22:09:05.899Z,3.20
2022-12-28T22:11:50.926Z,3.50
2022-12-28T22:14:17.250Z,3.50
2022-12-28T22:16:43.645Z,3.47
2022-12-28T22:19:10.002Z,3.13
2022-12-28T22:21:36.376Z,3.40
2022-12-28T22:24:02.791Z,3.10
2022-12-28T22:26:29.079Z,3.20
2022-12-28T22:28:55.410Z,3.50
2022-12-28T22:31:21.865Z,3.15
2022-12-28T22:33:48.254Z,3.50
2022-12-28T22:36:16.114Z,3.30
2022-12-28T22:38:42.534Z,3.15
2022-12-28T22:41:09.190Z,3.83
2022-12-28T22:43:35.535Z,3.20
2022-12-28T22:46:06.219Z,3.03
2022-12-28T22:48:32.827Z,3.35
2022-12-28T22:51:03.453Z,3.35
2022-12-28T22:53:29.883Z,3.95
2022-12-28T22:55:57.609Z,3.42
2022-12-28T22:58:23.959Z,3.10
2022-12-28T23:00:50.387Z,2.90
2022-12-28T23:03:16.730Z,3.47
2022-12-28T23:05:51.238Z,3.00
2022-12-28T23:08:17.659Z,3.10
2022-12-28T23:10:57.836Z,3.17
2022-12-28T23:13:24.308Z,3.20
2022-12-28T23:16:01.240Z,2.88
2022-12-28T23:18:46.379Z,3.10
2022-12-28T23:21:41.434Z,2.90
2022-12-28T23:24:30.022Z,3.45
2022-12-28T23:27:14.854Z,3.17
2022-12-28T23:29:41.167Z,3.60
2022-12-28T23:32:07.526Z,2.88
2022-12-28T23:34:33.910Z,2.67
2022-12-28T23:37:00.210Z,3.00
2022-12-28T23:39:26.523Z,3.13
2022-12-28T23:41:52.859Z,3.20
2022-12-28T23:44:23.994Z,3.40
2022-12-28T23:46:53.895Z,3.25
2022-12-28T23:49:24.402Z,2.92
2022-12-28T23:51:50.802Z,3.03
2022-12-28T23:54:18.141Z,3.03
2022-12-28T23:56:44.888Z,3.10
2022-12-28T23:59:11.566Z,3.03
